sensor_id;sensor_type;location;lat;lon;timestamp;P1;durP1;ratioP1;P2;durP2;ratioP2
10667;SDS011;5382;42.136;24.796;2023-05-07T00:02:23;7.00;;;4.10;;
10667;SDS011;5382;42.136;24.796;2023-05-07T00:04:50;5.43;;;4.32;;
10667;SDS011;5382;42.136;24.796;2023-05-07T00:07:18;5.53;;;4.63;;
10667;SDS011;5382;42.136;24.796;2023-05-07T00:09:45;4.80;;;4.38;;
10667;SDS011;5382;42.136;24.796;2023-05-07T00:12:12;5.18;;;4.68;;
10667;SDS011;5382;42.136;24.796;2023-05-07T00:14:39;7.68;;;4.50;;
10667;SDS011;5382;42.136;24.796;2023-05-07T00:17:05;6.55;;;5.03;;
10667;SDS011;5382;42.136;24.796;2023-05-07T00:19:32;5.45;;;5.03;;
10667;SDS011;5382;42.136;24.796;2023-05-07T00:21:59;9.43;;;4.65;;
10667;SDS011;5382;42.136;24.796;2023-05-07T00:24:27;5.78;;;4.22;;
10667;SDS011;5382;42.136;24.796;2023-05-07T00:26:54;7.60;;;4.68;;
10667;SDS011;5382;42.136;24.796;2023-05-07T00:29:23;6.20;;;4.60;;
10667;SDS011;5382;42.136;24.796;2023-05-07T00:31:50;6.88;;;4.43;;
10667;SDS011;5382;42.136;24.796;2023-05-07T00:34:19;6.80;;;4.53;;
10667;SDS011;5382;42.136;24.796;2023-05-07T00:36:45;4.57;;;4.18;;
10667;SDS011;5382;42.136;24.796;2023-05-07T00:39:12;5.28;;;3.50;;
10667;SDS011;5382;42.136;24.796;2023-05-07T00:41:40;5.15;;;4.63;;
10667;SDS011;5382;42.136;24.796;2023-05-07T00:44:07;8.30;;;5.18;;
10667;SDS011;5382;42.136;24.796;2023-05-07T00:46:34;5.80;;;4.55;;
10667;SDS011;5382;42.136;24.796;2023-05-07T00:49:00;7.53;;;4.55;;
10667;SDS011;5382;42.136;24.796;2023-05-07T00:51:28;5.35;;;4.85;;
10667;SDS011;5382;42.136;24.796;2023-05-07T00:53:56;5.57;;;4.10;;
10667;SDS011;5382;42.136;24.796;2023-05-07T00:56:22;6.07;;;4.50;;
10667;SDS011;5382;42.136;24.796;2023-05-07T00:58:51;6.43;;;4.50;;
10667;SDS011;5382;42.136;24.796;2023-05-07T01:01:18;5.47;;;3.97;;
10667;SDS011;5382;42.136;24.796;2023-05-07T01:03:45;5.38;;;3.55;;
10667;SDS011;5382;42.136;24.796;2023-05-07T01:06:12;6.45;;;4.70;;
10667;SDS011;5382;42.136;24.796;2023-05-07T01:08:41;3.65;;;3.30;;
10667;SDS011;5382;42.136;24.796;2023-05-07T01:11:09;6.32;;;4.57;;
10667;SDS011;5382;42.136;24.796;2023-05-07T01:13:36;5.15;;;4.63;;
10667;SDS011;5382;42.136;24.796;2023-05-07T01:16:06;6.60;;;5.07;;
10667;SDS011;5382;42.136;24.796;2023-05-07T01:18:36;5.60;;;4.07;;
10667;SDS011;5382;42.136;24.796;2023-05-07T01:21:04;5.43;;;4.50;;
10667;SDS011;5382;42.136;24.796;2023-05-07T01:23:32;7.32;;;5.07;;
10667;SDS011;5382;42.136;24.796;2023-05-07T01:26:00;3.85;;;3.50;;
10667;SDS011;5382;42.136;24.796;2023-05-07T01:28:27;10.25;;;4.25;;
10667;SDS011;5382;42.136;24.796;2023-05-07T01:30:55;5.93;;;4.30;;
10667;SDS011;5382;42.136;24.796;2023-05-07T01:33:32;6.70;;;5.18;;
10667;SDS011;5382;42.136;24.796;2023-05-07T01:36:01;10.45;;;4.85;;
10667;SDS011;5382;42.136;24.796;2023-05-07T01:38:32;8.32;;;5.22;;
10667;SDS011;5382;42.136;24.796;2023-05-07T01:41:00;6.05;;;5.45;;
10667;SDS011;5382;42.136;24.796;2023-05-07T01:43:27;9.25;;;5.82;;
10667;SDS011;5382;42.136;24.796;2023-05-07T01:45:55;7.55;;;6.72;;
10667;SDS011;5382;42.136;24.796;2023-05-07T01:48:22;6.00;;;5.18;;
10667;SDS011;5382;42.136;24.796;2023-05-07T01:50:50;7.22;;;6.53;;
10667;SDS011;5382;42.136;24.796;2023-05-07T01:53:17;8.85;;;6.47;;
10667;SDS011;5382;42.136;24.796;2023-05-07T01:55:45;11.95;;;6.85;;
10667;SDS011;5382;42.136;24.796;2023-05-07T01:58:12;10.00;;;6.35;;
10667;SDS011;5382;42.136;24.796;2023-05-07T02:00:39;10.93;;;6.72;;
10667;SDS011;5382;42.136;24.796;2023-05-07T02:03:06;10.77;;;6.50;;
10667;SDS011;5382;42.136;24.796;2023-05-07T02:05:33;10.45;;;6.65;;
10667;SDS011;5382;42.136;24.796;2023-05-07T02:08:00;10.05;;;7.72;;
10667;SDS011;5382;42.136;24.796;2023-05-07T02:10:27;10.20;;;6.32;;
10667;SDS011;5382;42.136;24.796;2023-05-07T02:12:55;10.57;;;7.78;;
10667;SDS011;5382;42.136;24.796;2023-05-07T02:15:21;8.80;;;7.75;;
10667;SDS011;5382;42.136;24.796;2023-05-07T02:17:58;10.27;;;7.40;;
10667;SDS011;5382;42.136;24.796;2023-05-07T02:20:26;9.15;;;6.95;;
10667;SDS011;5382;42.136;24.796;2023-05-07T02:22:53;7.57;;;6.70;;
10667;SDS011;5382;42.136;24.796;2023-05-07T02:25:19;9.98;;;7.57;;
10667;SDS011;5382;42.136;24.796;2023-05-07T02:27:46;8.27;;;6.78;;
10667;SDS011;5382;42.136;24.796;2023-05-07T02:30:14;9.98;;;6.88;;
10667;SDS011;5382;42.136;24.796;2023-05-07T02:32:41;8.10;;;6.85;;
10667;SDS011;5382;42.136;24.796;2023-05-07T02:35:08;11.52;;;7.97;;
10667;SDS011;5382;42.136;24.796;2023-05-07T02:37:35;6.53;;;5.68;;
10667;SDS011;5382;42.136;24.796;2023-05-07T02:40:02;10.40;;;6.70;;
10667;SDS011;5382;42.136;24.796;2023-05-07T02:42:29;8.57;;;7.78;;
10667;SDS011;5382;42.136;24.796;2023-05-07T02:44:56;10.45;;;8.48;;
10667;SDS011;5382;42.136;24.796;2023-05-07T02:47:24;9.05;;;6.07;;
10667;SDS011;5382;42.136;24.796;2023-05-07T02:49:53;7.80;;;6.63;;
10667;SDS011;5382;42.136;24.796;2023-05-07T02:52:20;11.00;;;6.97;;
10667;SDS011;5382;42.136;24.796;2023-05-07T02:54:47;8.43;;;7.60;;
10667;SDS011;5382;42.136;24.796;2023-05-07T02:57:14;7.47;;;6.78;;
10667;SDS011;5382;42.136;24.796;2023-05-07T02:59:41;8.20;;;6.70;;
10667;SDS011;5382;42.136;24.796;2023-05-07T03:02:08;6.70;;;6.00;;
10667;SDS011;5382;42.136;24.796;2023-05-07T03:04:36;8.32;;;6.28;;
10667;SDS011;5382;42.136;24.796;2023-05-07T03:07:03;7.85;;;7.10;;
10667;SDS011;5382;42.136;24.796;2023-05-07T03:09:30;9.30;;;7.00;;
10667;SDS011;5382;42.136;24.796;2023-05-07T03:11:56;7.78;;;7.05;;
10667;SDS011;5382;42.136;24.796;2023-05-07T03:14:23;7.75;;;6.95;;
10667;SDS011;5382;42.136;24.796;2023-05-07T03:16:50;9.23;;;5.63;;
10667;SDS011;5382;42.136;24.796;2023-05-07T03:19:17;10.15;;;7.35;;
10667;SDS011;5382;42.136;24.796;2023-05-07T03:21:45;9.60;;;6.25;;
10667;SDS011;5382;42.136;24.796;2023-05-07T03:24:12;10.25;;;6.70;;
10667;SDS011;5382;42.136;24.796;2023-05-07T03:26:39;9.65;;;6.63;;
10667;SDS011;5382;42.136;24.796;2023-05-07T03:29:05;8.98;;;7.47;;
10667;SDS011;5382;42.136;24.796;2023-05-07T03:31:32;7.13;;;6.38;;
10667;SDS011;5382;42.136;24.796;2023-05-07T03:33:59;10.23;;;7.65;;
10667;SDS011;5382;42.136;24.796;2023-05-07T03:36:26;8.25;;;6.43;;
10667;SDS011;5382;42.136;24.796;2023-05-07T03:38:54;9.40;;;7.40;;
10667;SDS011;5382;42.136;24.796;2023-05-07T03:41:21;8.18;;;6.88;;
10667;SDS011;5382;42.136;24.796;2023-05-07T03:43:47;11.95;;;8.00;;
10667;SDS011;5382;42.136;24.796;2023-05-07T03:46:14;11.15;;;8.55;;
10667;SDS011;5382;42.136;24.796;2023-05-07T03:48:41;9.70;;;6.55;;
10667;SDS011;5382;42.136;24.796;2023-05-07T03:51:08;12.32;;;7.45;;
10667;SDS011;5382;42.136;24.796;2023-05-07T03:53:35;9.88;;;7.43;;
10667;SDS011;5382;42.136;24.796;2023-05-07T03:56:03;9.35;;;8.40;;
10667;SDS011;5382;42.136;24.796;2023-05-07T03:58:30;9.70;;;7.50;;
10667;SDS011;5382;42.136;24.796;2023-05-07T04:00:57;13.70;;;8.65;;
10667;SDS011;5382;42.136;24.796;2023-05-07T04:03:24;11.63;;;9.18;;
10667;SDS011;5382;42.136;24.796;2023-05-07T04:05:50;9.77;;;8.02;;
10667;SDS011;5382;42.136;24.796;2023-05-07T04:08:17;9.88;;;8.65;;
10667;SDS011;5382;42.136;24.796;2023-05-07T04:10:44;9.77;;;8.82;;
10667;SDS011;5382;42.136;24.796;2023-05-07T04:13:12;11.27;;;9.32;;
10667;SDS011;5382;42.136;24.796;2023-05-07T04:15:39;10.32;;;9.18;;
10667;SDS011;5382;42.136;24.796;2023-05-07T04:18:06;10.45;;;8.95;;
10667;SDS011;5382;42.136;24.796;2023-05-07T04:20:33;8.93;;;8.05;;
10667;SDS011;5382;42.136;24.796;2023-05-07T04:23:01;9.65;;;6.78;;
10667;SDS011;5382;42.136;24.796;2023-05-07T04:25:28;10.60;;;8.30;;
10667;SDS011;5382;42.136;24.796;2023-05-07T04:27:55;10.45;;;8.27;;
10667;SDS011;5382;42.136;24.796;2023-05-07T04:30:23;15.05;;;9.82;;
10667;SDS011;5382;42.136;24.796;2023-05-07T04:32:49;11.65;;;10.07;;
10667;SDS011;5382;42.136;24.796;2023-05-07T04:35:16;9.63;;;8.60;;
10667;SDS011;5382;42.136;24.796;2023-05-07T04:37:43;10.18;;;9.15;;
10667;SDS011;5382;42.136;24.796;2023-05-07T04:40:10;9.70;;;7.63;;
10667;SDS011;5382;42.136;24.796;2023-05-07T04:42:37;9.98;;;8.57;;
10667;SDS011;5382;42.136;24.796;2023-05-07T04:45:04;8.18;;;7.00;;
10667;SDS011;5382;42.136;24.796;2023-05-07T04:47:33;11.45;;;8.77;;
10667;SDS011;5382;42.136;24.796;2023-05-07T04:49:59;12.23;;;7.82;;
10667;SDS011;5382;42.136;24.796;2023-05-07T04:52:26;10.75;;;8.60;;
10667;SDS011;5382;42.136;24.796;2023-05-07T04:54:53;9.75;;;8.82;;
10667;SDS011;5382;42.136;24.796;2023-05-07T04:57:20;9.95;;;7.82;;
10667;SDS011;5382;42.136;24.796;2023-05-07T04:59:47;10.38;;;9.13;;
10667;SDS011;5382;42.136;24.796;2023-05-07T05:02:14;11.10;;;7.70;;
10667;SDS011;5382;42.136;24.796;2023-05-07T05:04:42;9.25;;;7.60;;
10667;SDS011;5382;42.136;24.796;2023-05-07T05:07:09;11.68;;;8.98;;
10667;SDS011;5382;42.136;24.796;2023-05-07T05:09:36;9.60;;;8.38;;
10667;SDS011;5382;42.136;24.796;2023-05-07T05:12:03;10.27;;;8.48;;
10667;SDS011;5382;42.136;24.796;2023-05-07T05:14:32;8.95;;;8.15;;
10667;SDS011;5382;42.136;24.796;2023-05-07T05:16:59;11.07;;;8.35;;
10667;SDS011;5382;42.136;24.796;2023-05-07T05:19:25;9.77;;;8.73;;
10667;SDS011;5382;42.136;24.796;2023-05-07T05:21:54;9.80;;;8.20;;
10667;SDS011;5382;42.136;24.796;2023-05-07T05:24:21;8.57;;;7.78;;
10667;SDS011;5382;42.136;24.796;2023-05-07T05:26:47;10.07;;;8.38;;
10667;SDS011;5382;42.136;24.796;2023-05-07T05:29:14;9.10;;;8.20;;
10667;SDS011;5382;42.136;24.796;2023-05-07T05:31:41;8.68;;;7.78;;
10667;SDS011;5382;42.136;24.796;2023-05-07T05:34:07;9.25;;;7.70;;
10667;SDS011;5382;42.136;24.796;2023-05-07T05:36:34;8.45;;;7.65;;
10667;SDS011;5382;42.136;24.796;2023-05-07T05:39:02;8.32;;;7.47;;
10667;SDS011;5382;42.136;24.796;2023-05-07T05:41:30;11.35;;;8.98;;
10667;SDS011;5382;42.136;24.796;2023-05-07T05:43:56;12.23;;;7.80;;
10667;SDS011;5382;42.136;24.796;2023-05-07T05:46:23;10.80;;;7.72;;
10667;SDS011;5382;42.136;24.796;2023-05-07T05:48:50;8.35;;;7.57;;
10667;SDS011;5382;42.136;24.796;2023-05-07T05:51:17;9.48;;;6.80;;
10667;SDS011;5382;42.136;24.796;2023-05-07T05:53:43;9.48;;;7.82;;
10667;SDS011;5382;42.136;24.796;2023-05-07T05:56:11;8.95;;;7.03;;
10667;SDS011;5382;42.136;24.796;2023-05-07T05:58:39;8.23;;;6.60;;
10667;SDS011;5382;42.136;24.796;2023-05-07T06:01:05;9.35;;;7.88;;
10667;SDS011;5382;42.136;24.796;2023-05-07T06:03:32;10.15;;;8.15;;
10667;SDS011;5382;42.136;24.796;2023-05-07T06:06:01;7.97;;;6.35;;
10667;SDS011;5382;42.136;24.796;2023-05-07T06:08:29;9.48;;;6.30;;
10667;SDS011;5382;42.136;24.796;2023-05-07T06:10:56;7.95;;;6.38;;
10667;SDS011;5382;42.136;24.796;2023-05-07T06:13:24;7.18;;;5.97;;
10667;SDS011;5382;42.136;24.796;2023-05-07T06:15:51;9.23;;;6.40;;
10667;SDS011;5382;42.136;24.796;2023-05-07T06:18:18;10.63;;;6.18;;
10667;SDS011;5382;42.136;24.796;2023-05-07T06:20:45;9.82;;;6.40;;
10667;SDS011;5382;42.136;24.796;2023-05-07T06:23:11;9.38;;;7.03;;
10667;SDS011;5382;42.136;24.796;2023-05-07T06:25:38;8.13;;;6.30;;
10667;SDS011;5382;42.136;24.796;2023-05-07T06:28:05;7.47;;;6.05;;
10667;SDS011;5382;42.136;24.796;2023-05-07T06:30:34;11.23;;;6.60;;
10667;SDS011;5382;42.136;24.796;2023-05-07T06:33:01;9.32;;;6.38;;
10667;SDS011;5382;42.136;24.796;2023-05-07T06:35:28;8.73;;;6.85;;
10667;SDS011;5382;42.136;24.796;2023-05-07T06:37:55;8.48;;;6.38;;
10667;SDS011;5382;42.136;24.796;2023-05-07T06:40:22;7.15;;;6.45;;
10667;SDS011;5382;42.136;24.796;2023-05-07T06:42:48;7.32;;;6.00;;
10667;SDS011;5382;42.136;24.796;2023-05-07T06:45:16;10.70;;;7.03;;
10667;SDS011;5382;42.136;24.796;2023-05-07T06:47:44;9.52;;;7.00;;
10667;SDS011;5382;42.136;24.796;2023-05-07T06:50:11;9.15;;;6.75;;
10667;SDS011;5382;42.136;24.796;2023-05-07T06:52:38;7.15;;;6.43;;
10667;SDS011;5382;42.136;24.796;2023-05-07T06:55:05;13.90;;;7.60;;
10667;SDS011;5382;42.136;24.796;2023-05-07T06:57:33;11.05;;;6.65;;
10667;SDS011;5382;42.136;24.796;2023-05-07T06:59:59;9.70;;;7.00;;
10667;SDS011;5382;42.136;24.796;2023-05-07T07:02:26;10.13;;;7.20;;
10667;SDS011;5382;42.136;24.796;2023-05-07T07:04:54;9.38;;;6.55;;
10667;SDS011;5382;42.136;24.796;2023-05-07T07:07:21;11.50;;;6.90;;
10667;SDS011;5382;42.136;24.796;2023-05-07T07:09:48;8.63;;;6.90;;
10667;SDS011;5382;42.136;24.796;2023-05-07T07:12:16;9.98;;;6.80;;
10667;SDS011;5382;42.136;24.796;2023-05-07T07:14:43;10.20;;;7.57;;
10667;SDS011;5382;42.136;24.796;2023-05-07T07:17:10;10.65;;;7.50;;
10667;SDS011;5382;42.136;24.796;2023-05-07T07:19:36;8.55;;;7.10;;
10667;SDS011;5382;42.136;24.796;2023-05-07T07:22:06;7.70;;;6.40;;
10667;SDS011;5382;42.136;24.796;2023-05-07T07:24:32;9.20;;;7.72;;
10667;SDS011;5382;42.136;24.796;2023-05-07T07:26:59;8.02;;;6.93;;
10667;SDS011;5382;42.136;24.796;2023-05-07T07:29:26;9.27;;;7.60;;
10667;SDS011;5382;42.136;24.796;2023-05-07T07:31:52;8.20;;;6.90;;
10667;SDS011;5382;42.136;24.796;2023-05-07T07:34:19;10.15;;;7.38;;
10667;SDS011;5382;42.136;24.796;2023-05-07T07:36:46;8.23;;;7.35;;
10667;SDS011;5382;42.136;24.796;2023-05-07T07:39:14;8.18;;;7.38;;
10667;SDS011;5382;42.136;24.796;2023-05-07T07:41:41;8.60;;;7.10;;
10667;SDS011;5382;42.136;24.796;2023-05-07T07:44:08;8.35;;;6.63;;
10667;SDS011;5382;42.136;24.796;2023-05-07T07:46:37;8.07;;;7.20;;
10667;SDS011;5382;42.136;24.796;2023-05-07T07:49:04;7.00;;;6.30;;
10667;SDS011;5382;42.136;24.796;2023-05-07T07:51:31;8.57;;;6.10;;
10667;SDS011;5382;42.136;24.796;2023-05-07T07:53:58;8.43;;;6.30;;
10667;SDS011;5382;42.136;24.796;2023-05-07T07:56:27;8.60;;;5.72;;
10667;SDS011;5382;42.136;24.796;2023-05-07T07:58:54;6.22;;;5.45;;
10667;SDS011;5382;42.136;24.796;2023-05-07T08:01:20;7.40;;;5.82;;
10667;SDS011;5382;42.136;24.796;2023-05-07T08:03:47;7.78;;;5.97;;
10667;SDS011;5382;42.136;24.796;2023-05-07T08:06:14;6.55;;;5.85;;
10667;SDS011;5382;42.136;24.796;2023-05-07T08:08:41;7.65;;;6.60;;
10667;SDS011;5382;42.136;24.796;2023-05-07T08:11:07;7.03;;;5.53;;
10667;SDS011;5382;42.136;24.796;2023-05-07T08:13:36;6.38;;;5.70;;
10667;SDS011;5382;42.136;24.796;2023-05-07T08:16:04;6.20;;;4.45;;
10667;SDS011;5382;42.136;24.796;2023-05-07T08:18:31;4.68;;;4.22;;
10667;SDS011;5382;42.136;24.796;2023-05-07T08:20:58;6.90;;;4.28;;
10667;SDS011;5382;42.136;24.796;2023-05-07T08:23:24;5.20;;;4.32;;
10667;SDS011;5382;42.136;24.796;2023-05-07T08:25:51;7.07;;;3.90;;
10667;SDS011;5382;42.136;24.796;2023-05-07T08:28:18;5.00;;;4.55;;
10667;SDS011;5382;42.136;24.796;2023-05-07T08:30:47;5.38;;;4.68;;
10667;SDS011;5382;42.136;24.796;2023-05-07T08:33:14;5.50;;;4.00;;
10667;SDS011;5382;42.136;24.796;2023-05-07T08:35:41;4.55;;;3.60;;
10667;SDS011;5382;42.136;24.796;2023-05-07T08:38:08;5.13;;;3.65;;
10667;SDS011;5382;42.136;24.796;2023-05-07T08:40:36;6.55;;;3.65;;
10667;SDS011;5382;42.136;24.796;2023-05-07T08:43:05;10.00;;;3.90;;
10667;SDS011;5382;42.136;24.796;2023-05-07T08:45:32;5.93;;;3.20;;
10667;SDS011;5382;42.136;24.796;2023-05-07T08:48:03;4.00;;;3.22;;
10667;SDS011;5382;42.136;24.796;2023-05-07T08:50:35;7.97;;;3.55;;
10667;SDS011;5382;42.136;24.796;2023-05-07T08:53:02;4.93;;;3.67;;
10667;SDS011;5382;42.136;24.796;2023-05-07T08:55:29;4.15;;;3.80;;
10667;SDS011;5382;42.136;24.796;2023-05-07T08:57:56;6.07;;;3.45;;
10667;SDS011;5382;42.136;24.796;2023-05-07T09:00:23;3.05;;;2.53;;
10667;SDS011;5382;42.136;24.796;2023-05-07T09:02:50;4.57;;;2.40;;
10667;SDS011;5382;42.136;24.796;2023-05-07T09:05:19;5.15;;;2.65;;
10667;SDS011;5382;42.136;24.796;2023-05-07T09:07:46;3.35;;;2.13;;
10667;SDS011;5382;42.136;24.796;2023-05-07T09:10:14;4.38;;;2.42;;
10667;SDS011;5382;42.136;24.796;2023-05-07T09:12:41;3.97;;;2.40;;
10667;SDS011;5382;42.136;24.796;2023-05-07T09:15:08;2.47;;;2.13;;
10667;SDS011;5382;42.136;24.796;2023-05-07T09:17:35;5.35;;;2.50;;
10667;SDS011;5382;42.136;24.796;2023-05-07T09:20:02;4.63;;;2.60;;
10667;SDS011;5382;42.136;24.796;2023-05-07T09:22:32;3.72;;;2.63;;
10667;SDS011;5382;42.136;24.796;2023-05-07T09:24:59;6.28;;;2.92;;
10667;SDS011;5382;42.136;24.796;2023-05-07T09:27:26;4.22;;;3.05;;
10667;SDS011;5382;42.136;24.796;2023-05-07T09:29:53;5.15;;;2.95;;
10667;SDS011;5382;42.136;24.796;2023-05-07T09:32:19;5.57;;;3.13;;
10667;SDS011;5382;42.136;24.796;2023-05-07T09:34:46;3.78;;;2.85;;
10667;SDS011;5382;42.136;24.796;2023-05-07T09:37:13;4.78;;;2.35;;
10667;SDS011;5382;42.136;24.796;2023-05-07T09:39:42;3.85;;;2.50;;
10667;SDS011;5382;42.136;24.796;2023-05-07T09:42:09;3.85;;;2.60;;
10667;SDS011;5382;42.136;24.796;2023-05-07T09:44:36;5.15;;;3.25;;
10667;SDS011;5382;42.136;24.796;2023-05-07T09:47:04;4.40;;;2.65;;
10667;SDS011;5382;42.136;24.796;2023-05-07T09:49:33;5.32;;;4.65;;
10667;SDS011;5382;42.136;24.796;2023-05-07T09:52:02;3.95;;;2.90;;
10667;SDS011;5382;42.136;24.796;2023-05-07T09:54:31;5.03;;;3.47;;
10667;SDS011;5382;42.136;24.796;2023-05-07T09:57:01;5.13;;;3.33;;
10667;SDS011;5382;42.136;24.796;2023-05-07T09:59:28;3.55;;;2.80;;
10667;SDS011;5382;42.136;24.796;2023-05-07T10:01:58;4.68;;;3.10;;
10667;SDS011;5382;42.136;24.796;2023-05-07T10:04:25;6.25;;;3.00;;
10667;SDS011;5382;42.136;24.796;2023-05-07T10:06:52;4.32;;;2.63;;
10667;SDS011;5382;42.136;24.796;2023-05-07T10:09:21;3.28;;;2.90;;
10667;SDS011;5382;42.136;24.796;2023-05-07T10:11:48;6.50;;;2.92;;
10667;SDS011;5382;42.136;24.796;2023-05-07T10:14:17;7.97;;;3.75;;
10667;SDS011;5382;42.136;24.796;2023-05-07T10:16:45;10.50;;;2.97;;
10667;SDS011;5382;42.136;24.796;2023-05-07T10:19:14;4.50;;;2.80;;
10667;SDS011;5382;42.136;24.796;2023-05-07T10:21:44;3.90;;;2.80;;
10667;SDS011;5382;42.136;24.796;2023-05-07T10:24:16;3.33;;;2.67;;
10667;SDS011;5382;42.136;24.796;2023-05-07T10:26:49;5.45;;;3.55;;
10667;SDS011;5382;42.136;24.796;2023-05-07T10:29:21;2.83;;;2.53;;
10667;SDS011;5382;42.136;24.796;2023-05-07T10:31:57;3.17;;;2.50;;
10667;SDS011;5382;42.136;24.796;2023-05-07T10:34:34;2.25;;;2.05;;
10667;SDS011;5382;42.136;24.796;2023-05-07T10:37:05;3.85;;;2.45;;
10667;SDS011;5382;42.136;24.796;2023-05-07T10:39:33;3.67;;;2.50;;
10667;SDS011;5382;42.136;24.796;2023-05-07T10:42:07;3.28;;;2.33;;
10667;SDS011;5382;42.136;24.796;2023-05-07T10:44:36;8.07;;;3.08;;
10667;SDS011;5382;42.136;24.796;2023-05-07T10:47:04;3.33;;;2.70;;
10667;SDS011;5382;42.136;24.796;2023-05-07T10:49:34;3.75;;;2.30;;
10667;SDS011;5382;42.136;24.796;2023-05-07T10:52:10;2.47;;;2.22;;
10667;SDS011;5382;42.136;24.796;2023-05-07T10:54:38;3.75;;;1.85;;
10667;SDS011;5382;42.136;24.796;2023-05-07T11:00:05;3.90;;;2.70;;
10667;SDS011;5382;42.136;24.796;2023-05-07T11:03:11;3.50;;;2.00;;
10667;SDS011;5382;42.136;24.796;2023-05-07T11:05:39;4.18;;;2.00;;
10667;SDS011;5382;42.136;24.796;2023-05-07T11:08:07;3.35;;;1.90;;
10667;SDS011;5382;42.136;24.796;2023-05-07T11:10:47;4.13;;;2.05;;
10667;SDS011;5382;42.136;24.796;2023-05-07T11:13:15;4.45;;;1.90;;
10667;SDS011;5382;42.136;24.796;2023-05-07T11:15:42;3.35;;;1.95;;
10667;SDS011;5382;42.136;24.796;2023-05-07T11:18:12;2.55;;;2.13;;
10667;SDS011;5382;42.136;24.796;2023-05-07T11:20:53;4.07;;;2.20;;
10667;SDS011;5382;42.136;24.796;2023-05-07T11:26:25;2.83;;;2.08;;
10667;SDS011;5382;42.136;24.796;2023-05-07T11:28:53;3.20;;;1.90;;
10667;SDS011;5382;42.136;24.796;2023-05-07T11:31:21;4.70;;;2.30;;
10667;SDS011;5382;42.136;24.796;2023-05-07T11:33:51;3.72;;;2.30;;
10667;SDS011;5382;42.136;24.796;2023-05-07T11:36:18;2.38;;;2.13;;
10667;SDS011;5382;42.136;24.796;2023-05-07T11:38:46;2.55;;;2.20;;
10667;SDS011;5382;42.136;24.796;2023-05-07T11:41:12;3.38;;;2.50;;
10667;SDS011;5382;42.136;24.796;2023-05-07T11:43:53;3.40;;;2.30;;
10667;SDS011;5382;42.136;24.796;2023-05-07T11:46:23;3.97;;;2.63;;
10667;SDS011;5382;42.136;24.796;2023-05-07T11:48:52;4.68;;;2.25;;
10667;SDS011;5382;42.136;24.796;2023-05-07T11:51:19;2.25;;;1.90;;
10667;SDS011;5382;42.136;24.796;2023-05-07T11:53:46;2.47;;;2.28;;
10667;SDS011;5382;42.136;24.796;2023-05-07T11:56:15;2.70;;;2.13;;
10667;SDS011;5382;42.136;24.796;2023-05-07T11:58:44;2.72;;;2.30;;
10667;SDS011;5382;42.136;24.796;2023-05-07T12:01:13;3.10;;;2.20;;
10667;SDS011;5382;42.136;24.796;2023-05-07T12:03:42;3.60;;;2.33;;
10667;SDS011;5382;42.136;24.796;2023-05-07T12:06:12;3.90;;;2.13;;
10667;SDS011;5382;42.136;24.796;2023-05-07T12:08:40;3.15;;;2.10;;
10667;SDS011;5382;42.136;24.796;2023-05-07T12:11:08;2.47;;;2.00;;
10667;SDS011;5382;42.136;24.796;2023-05-07T12:13:36;17.25;;;3.08;;
10667;SDS011;5382;42.136;24.796;2023-05-07T12:16:05;3.22;;;2.15;;
10667;SDS011;5382;42.136;24.796;2023-05-07T12:18:33;4.32;;;2.30;;
10667;SDS011;5382;42.136;24.796;2023-05-07T12:21:01;3.53;;;2.05;;
10667;SDS011;5382;42.136;24.796;2023-05-07T12:23:29;5.00;;;2.22;;
10667;SDS011;5382;42.136;24.796;2023-05-07T12:25:57;2.72;;;2.10;;
10667;SDS011;5382;42.136;24.796;2023-05-07T12:28:25;3.72;;;2.33;;
10667;SDS011;5382;42.136;24.796;2023-05-07T12:30:52;2.53;;;2.10;;
10667;SDS011;5382;42.136;24.796;2023-05-07T12:33:23;4.25;;;2.00;;
10667;SDS011;5382;42.136;24.796;2023-05-07T12:35:50;4.32;;;2.17;;
10667;SDS011;5382;42.136;24.796;2023-05-07T12:38:19;5.03;;;2.30;;
10667;SDS011;5382;42.136;24.796;2023-05-07T12:40:48;4.85;;;2.38;;
10667;SDS011;5382;42.136;24.796;2023-05-07T12:43:17;2.47;;;2.15;;
10667;SDS011;5382;42.136;24.796;2023-05-07T12:45:44;3.85;;;2.30;;
10667;SDS011;5382;42.136;24.796;2023-05-07T12:48:12;5.38;;;2.70;;
10667;SDS011;5382;42.136;24.796;2023-05-07T12:50:39;3.55;;;1.80;;
10667;SDS011;5382;42.136;24.796;2023-05-07T12:53:06;2.08;;;1.88;;
10667;SDS011;5382;42.136;24.796;2023-05-07T12:55:40;6.50;;;2.30;;
10667;SDS011;5382;42.136;24.796;2023-05-07T12:58:10;3.72;;;2.10;;
10667;SDS011;5382;42.136;24.796;2023-05-07T13:00:41;4.00;;;2.58;;
10667;SDS011;5382;42.136;24.796;2023-05-07T13:03:08;2.58;;;1.98;;
10667;SDS011;5382;42.136;24.796;2023-05-07T13:05:35;3.88;;;2.10;;
10667;SDS011;5382;42.136;24.796;2023-05-07T13:08:02;4.95;;;1.98;;
10667;SDS011;5382;42.136;24.796;2023-05-07T13:10:29;2.78;;;1.75;;
10667;SDS011;5382;42.136;24.796;2023-05-07T13:12:56;2.67;;;2.20;;
10667;SDS011;5382;42.136;24.796;2023-05-07T13:15:24;2.67;;;1.75;;
10667;SDS011;5382;42.136;24.796;2023-05-07T13:17:52;2.10;;;1.90;;
10667;SDS011;5382;42.136;24.796;2023-05-07T13:20:18;5.50;;;2.10;;
10667;SDS011;5382;42.136;24.796;2023-05-07T13:22:45;2.45;;;1.70;;
10667;SDS011;5382;42.136;24.796;2023-05-07T13:25:12;2.22;;;1.77;;
10667;SDS011;5382;42.136;24.796;2023-05-07T13:27:39;2.15;;;1.92;;
10667;SDS011;5382;42.136;24.796;2023-05-07T13:30:06;4.55;;;1.70;;
10667;SDS011;5382;42.136;24.796;2023-05-07T13:32:34;3.55;;;2.10;;
10667;SDS011;5382;42.136;24.796;2023-05-07T13:35:01;2.17;;;1.77;;
10667;SDS011;5382;42.136;24.796;2023-05-07T13:37:28;2.38;;;1.70;;
10667;SDS011;5382;42.136;24.796;2023-05-07T13:39:55;2.40;;;1.90;;
10667;SDS011;5382;42.136;24.796;2023-05-07T13:42:22;2.33;;;1.42;;
10667;SDS011;5382;42.136;24.796;2023-05-07T13:44:49;3.00;;;1.98;;
10667;SDS011;5382;42.136;24.796;2023-05-07T13:47:16;2.35;;;1.52;;
10667;SDS011;5382;42.136;24.796;2023-05-07T13:49:44;3.22;;;1.60;;
10667;SDS011;5382;42.136;24.796;2023-05-07T13:52:10;5.15;;;1.77;;
10667;SDS011;5382;42.136;24.796;2023-05-07T13:54:37;3.42;;;1.70;;
10667;SDS011;5382;42.136;24.796;2023-05-07T13:57:04;1.90;;;1.80;;
10667;SDS011;5382;42.136;24.796;2023-05-07T13:59:31;1.95;;;1.50;;
10667;SDS011;5382;42.136;24.796;2023-05-07T14:01:58;3.35;;;1.90;;
10667;SDS011;5382;42.136;24.796;2023-05-07T14:04:25;2.55;;;1.55;;
10667;SDS011;5382;42.136;24.796;2023-05-07T14:06:53;2.20;;;1.20;;
10667;SDS011;5382;42.136;24.796;2023-05-07T14:09:20;1.70;;;1.40;;
10667;SDS011;5382;42.136;24.796;2023-05-07T14:11:46;3.15;;;1.63;;
10667;SDS011;5382;42.136;24.796;2023-05-07T14:14:16;2.50;;;1.55;;
10667;SDS011;5382;42.136;24.796;2023-05-07T14:16:43;2.65;;;1.77;;
10667;SDS011;5382;42.136;24.796;2023-05-07T14:19:10;2.08;;;1.42;;
10667;SDS011;5382;42.136;24.796;2023-05-07T14:21:36;1.70;;;1.52;;
10667;SDS011;5382;42.136;24.796;2023-05-07T14:24:05;1.75;;;1.58;;
10667;SDS011;5382;42.136;24.796;2023-05-07T14:26:32;3.38;;;1.65;;
10667;SDS011;5382;42.136;24.796;2023-05-07T14:29:00;2.67;;;1.70;;
10667;SDS011;5382;42.136;24.796;2023-05-07T14:31:26;5.47;;;1.88;;
10667;SDS011;5382;42.136;24.796;2023-05-07T14:33:54;2.58;;;1.73;;
10667;SDS011;5382;42.136;24.796;2023-05-07T14:36:23;1.48;;;1.38;;
10667;SDS011;5382;42.136;24.796;2023-05-07T14:38:51;1.75;;;1.50;;
10667;SDS011;5382;42.136;24.796;2023-05-07T14:41:20;2.58;;;1.60;;
10667;SDS011;5382;42.136;24.796;2023-05-07T14:43:48;4.25;;;1.50;;
10667;SDS011;5382;42.136;24.796;2023-05-07T14:46:16;2.45;;;1.50;;
10667;SDS011;5382;42.136;24.796;2023-05-07T14:48:43;3.15;;;1.58;;
10667;SDS011;5382;42.136;24.796;2023-05-07T14:51:10;2.72;;;1.80;;
10667;SDS011;5382;42.136;24.796;2023-05-07T14:53:37;3.33;;;1.58;;
10667;SDS011;5382;42.136;24.796;2023-05-07T14:56:04;4.25;;;1.70;;